sensor_id;sensor_type;location;lat;lon;timestamp;pressure;altitude;pressure_sealevel;temperature;humidity
57568;BME280;43403;51.948;5.922;2023-01-28T00:02:11;102899.53;;;4.35;96.89
57568;BME280;43403;51.948;5.922;2023-01-28T00:04:38;102900.28;;;4.39;97.67
57568;BME280;43403;51.948;5.922;2023-01-28T00:07:05;102905.47;;;4.39;96.85
57568;BME280;43403;51.948;5.922;2023-01-28T00:09:31;102906.44;;;4.36;96.67
57568;BME280;43403;51.948;5.922;2023-01-28T00:11:57;102906.38;;;4.38;96.88
57568;BME280;43403;51.948;5.922;2023-01-28T00:14:24;102905.66;;;4.34;96.92
57568;BME280;43403;51.948;5.922;2023-01-28T00:16:50;102910.84;;;4.34;97.08
57568;BME280;43403;51.948;5.922;2023-01-28T00:19:16;102900.50;;;4.32;96.11
57568;BME280;43403;51.948;5.922;2023-01-28T00:21:43;102899.69;;;4.30;95.41
57568;BME280;43403;51.948;5.922;2023-01-28T00:24:09;102893.81;;;4.25;95.24
57568;BME280;43403;51.948;5.922;2023-01-28T00:26:35;102901.47;;;4.30;96.77
57568;BME280;43403;51.948;5.922;2023-01-28T00:29:02;102899.75;;;4.29;96.01
57568;BME280;43403;51.948;5.922;2023-01-28T00:31:28;102894.69;;;4.26;93.02
57568;BME280;43403;51.948;5.922;2023-01-28T00:33:55;102890.50;;;4.22;93.72
57568;BME280;43403;51.948;5.922;2023-01-28T00:36:23;102896.94;;;4.35;99.98
57568;BME280;43403;51.948;5.922;2023-01-28T00:38:50;102898.72;;;4.33;92.84
57568;BME280;43403;51.948;5.922;2023-01-28T00:41:17;102905.88;;;4.28;94.94
57568;BME280;43403;51.948;5.922;2023-01-28T00:43:47;102904.91;;;4.30;95.70
57568;BME280;43403;51.948;5.922;2023-01-28T00:46:13;102901.50;;;4.28;93.56
57568;BME280;43403;51.948;5.922;2023-01-28T00:48:40;102909.25;;;4.30;94.25
57568;BME280;43403;51.948;5.922;2023-01-28T00:51:08;102907.50;;;4.30;94.33
57568;BME280;43403;51.948;5.922;2023-01-28T00:53:35;102913.63;;;4.29;94.80
57568;BME280;43403;51.948;5.922;2023-01-28T00:56:02;102910.22;;;4.27;93.98
57568;BME280;43403;51.948;5.922;2023-01-28T00:58:29;102911.94;;;4.27;91.79
57568;BME280;43403;51.948;5.922;2023-01-28T01:00:55;102913.53;;;4.31;93.84
57568;BME280;43403;51.948;5.922;2023-01-28T01:03:21;102909.25;;;4.30;94.72
57568;BME280;43403;51.948;5.922;2023-01-28T01:05:48;102911.84;;;4.30;95.66
57568;BME280;43403;51.948;5.922;2023-01-28T01:08:14;102911.06;;;4.28;95.65
57568;BME280;43403;51.948;5.922;2023-01-28T01:10:40;102917.94;;;4.29;96.13
57568;BME280;43403;51.948;5.922;2023-01-28T01:13:07;102913.63;;;4.29;98.12
57568;BME280;43403;51.948;5.922;2023-01-28T01:15:33;102911.06;;;4.28;99.12
57568;BME280;43403;51.948;5.922;2023-01-28T01:18:00;102910.13;;;4.29;99.03
57568;BME280;43403;51.948;5.922;2023-01-28T01:20:27;102910.25;;;4.26;99.43
57568;BME280;43403;51.948;5.922;2023-01-28T01:22:54;102912.00;;;4.25;100.00
57568;BME280;43403;51.948;5.922;2023-01-28T01:25:21;102912.88;;;4.26;100.00
57568;BME280;43403;51.948;5.922;2023-01-28T01:27:48;102918.00;;;4.27;100.00
57568;BME280;43403;51.948;5.922;2023-01-28T01:30:15;102921.50;;;4.26;100.00
57568;BME280;43403;51.948;5.922;2023-01-28T01:32:41;102918.00;;;4.27;100.00
57568;BME280;43403;51.948;5.922;2023-01-28T01:35:08;102920.72;;;4.24;100.00
57568;BME280;43403;51.948;5.922;2023-01-28T01:37:35;102915.50;;;4.24;100.00
57568;BME280;43403;51.948;5.922;2023-01-28T01:40:02;102910.41;;;4.21;100.00
57568;BME280;43403;51.948;5.922;2023-01-28T01:42:30;102911.09;;;4.26;100.00
57568;BME280;43403;51.948;5.922;2023-01-28T01:45:04;102908.56;;;4.25;100.00
57568;BME280;43403;51.948;5.922;2023-01-28T01:50:02;102912.00;;;4.25;99.78
57568;BME280;43403;51.948;5.922;2023-01-28T01:52:30;102906.88;;;4.24;99.85
57568;BME280;43403;51.948;5.922;2023-01-28T01:54:59;102909.56;;;4.21;99.41
57568;BME280;43403;51.948;5.922;2023-01-28T01:57:28;102911.19;;;4.23;99.72
57568;BME280;43403;51.948;5.922;2023-01-28T01:59:55;102915.56;;;4.23;97.82
57568;BME280;43403;51.948;5.922;2023-01-28T02:02:34;102917.31;;;4.22;99.43
57568;BME280;43403;51.948;5.922;2023-01-28T02:05:02;102920.75;;;4.23;98.90
57568;BME280;43403;51.948;5.922;2023-01-28T02:07:29;102921.59;;;4.23;98.59
57568;BME280;43403;51.948;5.922;2023-01-28T02:09:55;102911.31;;;4.20;99.13
57568;BME280;43403;51.948;5.922;2023-01-28T02:12:23;102916.56;;;4.19;96.89
57568;BME280;43403;51.948;5.922;2023-01-28T02:15:34;102920.97;;;4.16;96.76
57568;BME280;43403;51.948;5.922;2023-01-28T02:17:41;102914.94;;;4.16;96.57
57568;BME280;43403;51.948;5.922;2023-01-28T02:23:04;102925.41;;;4.13;97.28
57568;BME280;43403;51.948;5.922;2023-01-28T02:25:40;102912.47;;;4.11;96.30
57568;BME280;43403;51.948;5.922;2023-01-28T02:28:16;102925.59;;;4.08;95.65
57568;BME280;43403;51.948;5.922;2023-01-28T02:31:33;102921.19;;;4.10;95.96
57568;BME280;43403;51.948;5.922;2023-01-28T02:33:34;102917.00;;;4.06;96.37
57568;BME280;43403;51.948;5.922;2023-01-28T02:36:08;102924.66;;;4.09;95.55
57568;BME280;43403;51.948;5.922;2023-01-28T02:38:40;102927.44;;;4.05;96.47
57568;BME280;43403;51.948;5.922;2023-01-28T02:41:10;102930.00;;;4.06;96.87
57568;BME280;43403;51.948;5.922;2023-01-28T02:43:42;102921.44;;;4.03;94.94
57568;BME280;43403;51.948;5.922;2023-01-28T02:46:14;102923.13;;;4.04;96.25
57568;BME280;43403;51.948;5.922;2023-01-28T02:49:00;102926.59;;;4.04;95.81
57568;BME280;43403;51.948;5.922;2023-01-28T02:53:59;102919.81;;;4.00;96.49
57568;BME280;43403;51.948;5.922;2023-01-28T02:56:32;102924.94;;;4.02;97.31
57568;BME280;43403;51.948;5.922;2023-01-28T02:59:10;102925.84;;;4.01;98.21
57568;BME280;43403;51.948;5.922;2023-01-28T03:01:59;102927.66;;;3.99;98.67
57568;BME280;43403;51.948;5.922;2023-01-28T03:07:26;102928.53;;;3.97;96.93
57568;BME280;43403;51.948;5.922;2023-01-28T03:09:54;102929.41;;;3.98;98.29
57568;BME280;43403;51.948;5.922;2023-01-28T03:12:24;102927.69;;;3.97;98.56
57568;BME280;43403;51.948;5.922;2023-01-28T03:15:54;102932.06;;;3.96;98.96
57568;BME280;43403;51.948;5.922;2023-01-28T03:18:21;102932.94;;;3.95;98.64
57568;BME280;43403;51.948;5.922;2023-01-28T03:21:13;102928.66;;;3.94;98.58
57568;BME280;43403;51.948;5.922;2023-01-28T03:23:59;102912.22;;;3.94;98.02
57568;BME280;43403;51.948;5.922;2023-01-28T03:26:50;102923.50;;;3.93;98.69
57568;BME280;43403;51.948;5.922;2023-01-28T03:29:40;102933.91;;;3.93;98.08
57568;BME280;43403;51.948;5.922;2023-01-28T03:32:26;102928.75;;;3.91;98.58
57568;BME280;43403;51.948;5.922;2023-01-28T03:35:11;102915.88;;;3.88;97.04
57568;BME280;43403;51.948;5.922;2023-01-28T03:37:57;102920.28;;;3.86;94.80
57568;BME280;43403;51.948;5.922;2023-01-28T03:40:25;102929.97;;;3.81;96.79
57568;BME280;43403;51.948;5.922;2023-01-28T03:42:52;102922.16;;;3.81;95.96
57568;BME280;43403;51.948;5.922;2023-01-28T03:45:19;102918.72;;;3.81;96.47
57568;BME280;43403;51.948;5.922;2023-01-28T03:47:46;102922.25;;;3.78;96.27
57568;BME280;43403;51.948;5.922;2023-01-28T03:50:13;102924.84;;;3.78;95.44
57568;BME280;43403;51.948;5.922;2023-01-28T03:52:39;102930.91;;;3.79;97.79
57568;BME280;43403;51.948;5.922;2023-01-28T03:55:08;102945.69;;;3.76;97.42
57568;BME280;43403;51.948;5.922;2023-01-28T03:57:39;102939.59;;;3.78;99.25
57568;BME280;43403;51.948;5.922;2023-01-28T04:00:06;102938.78;;;3.75;97.79
57568;BME280;43403;51.948;5.922;2023-01-28T04:02:33;102941.34;;;3.77;97.86
57568;BME280;43403;51.948;5.922;2023-01-28T04:05:00;102934.56;;;3.73;98.26
57568;BME280;43403;51.948;5.922;2023-01-28T04:07:32;102948.34;;;3.75;98.87
57568;BME280;43403;51.948;5.922;2023-01-28T04:09:58;102942.34;;;3.73;98.31
57568;BME280;43403;51.948;5.922;2023-01-28T04:12:25;102942.31;;;3.74;98.82
57568;BME280;43403;51.948;5.922;2023-01-28T04:14:51;102939.84;;;3.70;97.72
57568;BME280;43403;51.948;5.922;2023-01-28T04:17:18;102944.16;;;3.71;98.01
57568;BME280;43403;51.948;5.922;2023-01-28T04:19:44;102944.28;;;3.66;98.74
57568;BME280;43403;51.948;5.922;2023-01-28T04:22:10;102949.38;;;3.69;97.34
57568;BME280;43403;51.948;5.922;2023-01-28T04:24:37;102941.56;;;3.71;96.28
57568;BME280;43403;51.948;5.922;2023-01-28T04:27:03;102928.56;;;3.71;93.80
57568;BME280;43403;51.948;5.922;2023-01-28T04:29:29;102936.44;;;3.68;92.98
57568;BME280;43403;51.948;5.922;2023-01-28T04:31:56;102930.47;;;3.66;92.65
57568;BME280;43403;51.948;5.922;2023-01-28T04:34:23;102939.00;;;3.69;93.24
57568;BME280;43403;51.948;5.922;2023-01-28T04:36:49;102946.78;;;3.69;94.56
57568;BME280;43403;51.948;5.922;2023-01-28T04:39:15;102944.03;;;3.74;95.11
57568;BME280;43403;51.948;5.922;2023-01-28T04:41:42;102949.28;;;3.72;94.24
57568;BME280;43403;51.948;5.922;2023-01-28T04:44:08;102947.63;;;3.70;93.15
57568;BME280;43403;51.948;5.922;2023-01-28T04:46:34;102951.13;;;3.69;86.76
57568;BME280;43403;51.948;5.922;2023-01-28T04:49:01;102949.47;;;3.66;88.89
57568;BME280;43403;51.948;5.922;2023-01-28T04:51:28;102953.97;;;3.61;88.01
57568;BME280;43403;51.948;5.922;2023-01-28T04:53:55;102957.41;;;3.62;88.18
57568;BME280;43403;51.948;5.922;2023-01-28T04:56:21;102953.97;;;3.61;89.14
57568;BME280;43403;51.948;5.922;2023-01-28T04:58:48;102966.06;;;3.61;88.71
57568;BME280;43403;51.948;5.922;2023-01-28T05:01:14;102964.44;;;3.58;88.71
57568;BME280;43403;51.948;5.922;2023-01-28T05:03:40;102975.66;;;3.59;89.02
57568;BME280;43403;51.948;5.922;2023-01-28T05:06:06;102970.63;;;3.54;88.49
57568;BME280;43403;51.948;5.922;2023-01-28T05:08:34;102971.56;;;3.51;88.28
57568;BME280;43403;51.948;5.922;2023-01-28T05:11:00;102965.47;;;3.52;89.66
57568;BME280;43403;51.948;5.922;2023-01-28T05:13:26;102962.06;;;3.50;88.88
57568;BME280;43403;51.948;5.922;2023-01-28T05:15:52;102960.44;;;3.48;88.05
57568;BME280;43403;51.948;5.922;2023-01-28T05:18:19;102955.28;;;3.46;88.66
57568;BME280;43403;51.948;5.922;2023-01-28T05:20:46;102955.25;;;3.48;88.89
57568;BME280;43403;51.948;5.922;2023-01-28T05:23:13;102953.47;;;3.50;89.30
57568;BME280;43403;51.948;5.922;2023-01-28T05:25:39;102957.84;;;3.48;88.39
57568;BME280;43403;51.948;5.922;2023-01-28T05:28:06;102959.41;;;3.53;89.12
57568;BME280;43403;51.948;5.922;2023-01-28T05:30:33;102952.63;;;3.49;87.90
57568;BME280;43403;51.948;5.922;2023-01-28T05:32:59;102957.69;;;3.52;89.70
57568;BME280;43403;51.948;5.922;2023-01-28T05:35:25;102949.22;;;3.47;87.37
57568;BME280;43403;51.948;5.922;2023-01-28T05:37:52;102941.38;;;3.49;88.87
57568;BME280;43403;51.948;5.922;2023-01-28T05:40:18;102946.50;;;3.50;87.98
57568;BME280;43403;51.948;5.922;2023-01-28T05:42:45;102945.72;;;3.48;86.60
57568;BME280;43403;51.948;5.922;2023-01-28T05:45:11;102950.94;;;3.47;86.48
57568;BME280;43403;51.948;5.922;2023-01-28T05:47:38;102952.75;;;3.45;86.60
57568;BME280;43403;51.948;5.922;2023-01-28T05:50:05;102961.50;;;3.41;87.24
57568;BME280;43403;51.948;5.922;2023-01-28T05:52:31;102963.31;;;3.39;87.46
57568;BME280;43403;51.948;5.922;2023-01-28T05:54:58;102952.88;;;3.40;88.10
57568;BME280;43403;51.948;5.922;2023-01-28T05:57:24;102958.97;;;3.39;85.84
57568;BME280;43403;51.948;5.922;2023-01-28T05:59:50;102962.50;;;3.36;84.12
57568;BME280;43403;51.948;5.922;2023-01-28T06:02:17;102954.75;;;3.35;86.30
57568;BME280;43403;51.948;5.922;2023-01-28T06:04:43;102967.81;;;3.33;85.20
57568;BME280;43403;51.948;5.922;2023-01-28T06:07:10;102961.75;;;3.33;84.88
57568;BME280;43403;51.948;5.922;2023-01-28T06:09:38;102962.75;;;3.29;84.06
57568;BME280;43403;51.948;5.922;2023-01-28T06:12:04;102967.06;;;3.30;85.27
57568;BME280;43403;51.948;5.922;2023-01-28T06:14:31;102955.00;;;3.27;86.75
57568;BME280;43403;51.948;5.922;2023-01-28T06:16:57;102960.28;;;3.24;86.94
57568;BME280;43403;51.948;5.922;2023-01-28T06:19:23;102958.53;;;3.25;86.66
57568;BME280;43403;51.948;5.922;2023-01-28T06:21:49;102959.38;;;3.25;87.15
57568;BME280;43403;51.948;5.922;2023-01-28T06:24:16;102968.84;;;3.28;87.17
57568;BME280;43403;51.948;5.922;2023-01-28T06:26:43;102970.69;;;3.24;85.55
57568;BME280;43403;51.948;5.922;2023-01-28T06:29:09;102971.63;;;3.22;85.12
57568;BME280;43403;51.948;5.922;2023-01-28T06:31:35;102963.97;;;3.17;83.22
57568;BME280;43403;51.948;5.922;2023-01-28T06:34:02;102962.31;;;3.14;84.19
57568;BME280;43403;51.948;5.922;2023-01-28T06:36:28;102955.56;;;3.09;84.42
57568;BME280;43403;51.948;5.922;2023-01-28T06:38:54;102957.34;;;3.07;85.82
57568;BME280;43403;51.948;5.922;2023-01-28T06:41:21;102964.28;;;3.06;87.04
57568;BME280;43403;51.948;5.922;2023-01-28T06:43:47;102963.34;;;3.09;87.14
57568;BME280;43403;51.948;5.922;2023-01-28T06:46:13;102959.94;;;3.07;87.99
57568;BME280;43403;51.948;5.922;2023-01-28T06:48:40;102961.69;;;3.06;86.69
57568;BME280;43403;51.948;5.922;2023-01-28T06:51:06;102963.34;;;3.09;87.36
57568;BME280;43403;51.948;5.922;2023-01-28T06:53:33;102967.72;;;3.07;86.82
57568;BME280;43403;51.948;5.922;2023-01-28T06:55:59;102978.25;;;3.02;85.49
57568;BME280;43403;51.948;5.922;2023-01-28T06:58:25;102967.88;;;3.02;87.22
57568;BME280;43403;51.948;5.922;2023-01-28T07:00:52;102970.41;;;3.04;88.27
57568;BME280;43403;51.948;5.922;2023-01-28T07:03:18;102970.47;;;3.02;88.06
57568;BME280;43403;51.948;5.922;2023-01-28T07:05:44;102973.94;;;3.01;88.21
57568;BME280;43403;51.948;5.922;2023-01-28T07:08:11;102973.06;;;3.02;88.37
57568;BME280;43403;51.948;5.922;2023-01-28T07:10:37;102987.72;;;3.03;89.53
57568;BME280;43403;51.948;5.922;2023-01-28T07:13:03;103004.06;;;3.05;88.38
57568;BME280;43403;51.948;5.922;2023-01-28T07:15:30;103005.09;;;3.00;86.94
57568;BME280;43403;51.948;5.922;2023-01-28T07:17:56;103010.25;;;3.01;87.36
57568;BME280;43403;51.948;5.922;2023-01-28T07:20:24;103017.06;;;3.04;87.32
57568;BME280;43403;51.948;5.922;2023-01-28T07:22:50;103012.78;;;3.03;87.14
57568;BME280;43403;51.948;5.922;2023-01-28T07:25:17;103019.66;;;3.04;87.05
57568;BME280;43403;51.948;5.922;2023-01-28T07:27:47;103008.47;;;3.02;87.73
57568;BME280;43403;51.948;5.922;2023-01-28T07:30:14;103012.84;;;3.01;88.84
57568;BME280;43403;51.948;5.922;2023-01-28T07:32:42;103023.31;;;2.98;87.42
57568;BME280;43403;51.948;5.922;2023-01-28T07:35:09;103025.94;;;2.96;86.13
57568;BME280;43403;51.948;5.922;2023-01-28T07:37:36;103027.72;;;2.94;86.53
57568;BME280;43403;51.948;5.922;2023-01-28T07:40:06;103025.91;;;2.98;88.96
57568;BME280;43403;51.948;5.922;2023-01-28T07:42:32;103027.63;;;2.97;85.96
57568;BME280;43403;51.948;5.922;2023-01-28T07:44:59;103026.78;;;2.97;86.50
57568;BME280;43403;51.948;5.922;2023-01-28T07:47:25;103025.13;;;2.94;86.06
57568;BME280;43403;51.948;5.922;2023-01-28T07:49:52;103011.41;;;2.91;85.22
57568;BME280;43403;51.948;5.922;2023-01-28T07:52:18;103028.59;;;2.93;86.89
57568;BME280;43403;51.948;5.922;2023-01-28T07:54:44;103038.91;;;2.96;87.01
57568;BME280;43403;51.948;5.922;2023-01-28T07:57:11;103033.59;;;3.00;88.45
57568;BME280;43403;51.948;5.922;2023-01-28T07:59:37;103041.38;;;3.00;86.81
57568;BME280;43403;51.948;5.922;2023-01-28T08:02:04;103043.13;;;2.99;86.63
57568;BME280;43403;51.948;5.922;2023-01-28T08:04:30;103042.16;;;3.03;87.56
57568;BME280;43403;51.948;5.922;2023-01-28T08:06:57;103044.75;;;3.03;87.02
57568;BME280;43403;51.948;5.922;2023-01-28T08:09:23;103044.72;;;3.05;87.42
57568;BME280;43403;51.948;5.922;2023-01-28T08:11:49;103056.78;;;3.06;87.46
57568;BME280;43403;51.948;5.922;2023-01-28T08:14:16;103054.25;;;3.04;88.62
57568;BME280;43403;51.948;5.922;2023-01-28T08:16:44;103053.31;;;3.07;88.11
57568;BME280;43403;51.948;5.922;2023-01-28T08:19:15;103057.59;;;3.08;87.90
57568;BME280;43403;51.948;5.922;2023-01-28T08:21:43;103057.53;;;3.09;88.85
57568;BME280;43403;51.948;5.922;2023-01-28T08:24:12;103059.25;;;3.10;89.15
57568;BME280;43403;51.948;5.922;2023-01-28T08:26:38;103049.72;;;3.11;89.05
57568;BME280;43403;51.948;5.922;2023-01-28T08:29:04;103053.38;;;3.04;88.25
57568;BME280;43403;51.948;5.922;2023-01-28T08:31:31;103065.53;;;3.02;87.02
57568;BME280;43403;51.948;5.922;2023-01-28T08:33:57;103064.81;;;2.96;88.04
57568;BME280;43403;51.948;5.922;2023-01-28T08:36:27;103067.59;;;2.90;86.81
57568;BME280;43403;51.948;5.922;2023-01-28T08:38:53;103066.69;;;2.91;88.76
57568;BME280;43403;51.948;5.922;2023-01-28T08:41:20;103072.88;;;2.86;87.68
57568;BME280;43403;51.948;5.922;2023-01-28T08:43:47;103072.97;;;2.83;86.67
57568;BME280;43403;51.948;5.922;2023-01-28T08:46:14;103077.34;;;2.81;86.85
57568;BME280;43403;51.948;5.922;2023-01-28T08:48:41;103079.00;;;2.83;88.08
57568;BME280;43403;51.948;5.922;2023-01-28T08:51:08;103077.22;;;2.85;87.22
57568;BME280;43403;51.948;5.922;2023-01-28T08:53:34;103078.06;;;2.86;88.95
57568;BME280;43403;51.948;5.922;2023-01-28T08:56:01;103072.88;;;2.86;91.06
57568;BME280;43403;51.948;5.922;2023-01-28T08:58:27;103076.28;;;2.88;89.91
57568;BME280;43403;51.948;5.922;2023-01-28T09:00:54;103090.00;;;2.91;90.43
57568;BME280;43403;51.948;5.922;2023-01-28T09:03:20;103096.03;;;2.92;88.99
57568;BME280;43403;51.948;5.922;2023-01-28T09:05:46;103088.97;;;2.99;91.15
57568;BME280;43403;51.948;5.922;2023-01-28T09:08:14;103088.88;;;3.02;89.48
57568;BME280;43403;51.948;5.922;2023-01-28T09:10:41;103091.47;;;3.02;88.59
57568;BME280;43403;51.948;5.922;2023-01-28T09:13:09;103081.00;;;3.05;88.37
57568;BME280;43403;51.948;5.922;2023-01-28T09:15:36;103086.97;;;3.08;88.12
57568;BME280;43403;51.948;5.922;2023-01-28T09:18:03;103084.41;;;3.07;88.05
57568;BME280;43403;51.948;5.922;2023-01-28T09:20:29;103096.41;;;3.11;88.29
57568;BME280;43403;51.948;5.922;2023-01-28T09:22:57;103117.88;;;3.16;88.13
57568;BME280;43403;51.948;5.922;2023-01-28T09:25:23;103110.91;;;3.18;88.33
57568;BME280;43403;51.948;5.922;2023-01-28T09:27:50;103110.88;;;3.20;86.97
57568;BME280;43403;51.948;5.922;2023-01-28T09:30:16;103120.31;;;3.22;88.38
57568;BME280;43403;51.948;5.922;2023-01-28T09:32:43;103113.34;;;3.24;88.72
57568;BME280;43403;51.948;5.922;2023-01-28T09:35:10;103120.16;;;3.27;88.44
57568;BME280;43403;51.948;5.922;2023-01-28T09:37:37;103131.31;;;3.30;88.04
57568;BME280;43403;51.948;5.922;2023-01-28T09:40:06;103114.09;;;3.28;87.75
57568;BME280;43403;51.948;5.922;2023-01-28T09:45:14;103117.50;;;3.30;86.23
57568;BME280;43403;51.948;5.922;2023-01-28T09:47:45;103128.66;;;3.33;87.87
57568;BME280;43403;51.948;5.922;2023-01-28T09:50:17;103127.91;;;3.28;86.31
57568;BME280;43403;51.948;5.922;2023-01-28T09:52:46;103120.00;;;3.33;87.32
57568;BME280;43403;51.948;5.922;2023-01-28T09:55:19;103125.25;;;3.31;86.95
57568;BME280;43403;51.948;5.922;2023-01-28T09:57:49;103133.78;;;3.35;87.92
57568;BME280;43403;51.948;5.922;2023-01-28T10:00:20;103134.66;;;3.35;86.63
57568;BME280;43403;51.948;5.922;2023-01-28T10:02:50;103139.69;;;3.40;87.41
57568;BME280;43403;51.948;5.922;2023-01-28T10:10:32;103139.34;;;3.52;87.18
57568;BME280;43403;51.948;5.922;2023-01-28T10:15:45;103130.50;;;3.60;87.36
57568;BME280;43403;51.948;5.922;2023-01-28T10:18:12;103143.22;;;3.69;88.58
57568;BME280;43403;51.948;5.922;2023-01-28T10:20:59;103143.97;;;3.72;87.12
57568;BME280;43403;51.948;5.922;2023-01-28T10:23:33;103142.03;;;3.79;86.89
57568;BME280;43403;51.948;5.922;2023-01-28T10:26:02;103131.50;;;3.84;85.93
57568;BME280;43403;51.948;5.922;2023-01-28T10:28:33;103122.66;;;3.91;86.37
57568;BME280;43403;51.948;5.922;2023-01-28T10:30:59;103125.97;;;3.96;84.04
57568;BME280;43403;51.948;5.922;2023-01-28T10:33:34;103134.56;;;3.98;84.06
57568;BME280;43403;51.948;5.922;2023-01-28T10:36:01;103127.75;;;3.94;81.34
57568;BME280;43403;51.948;5.922;2023-01-28T10:38:28;103133.69;;;3.97;85.07
57568;BME280;43403;51.948;5.922;2023-01-28T10:40:57;103123.06;;;4.05;85.51
57568;BME280;43403;51.948;5.922;2023-01-28T10:43:25;103126.44;;;4.09;84.59
57568;BME280;43403;51.948;5.922;2023-01-28T10:48:35;103113.97;;;4.20;87.33
57568;BME280;43403;51.948;5.922;2023-01-28T10:51:04;103107.75;;;4.24;85.22
57568;BME280;43403;51.948;5.922;2023-01-28T10:56:01;103111.00;;;4.31;82.54
57568;BME280;43403;51.948;5.922;2023-01-28T10:58:28;103110.06;;;4.33;82.19
57568;BME280;43403;51.948;5.922;2023-01-28T11:00:58;103095.38;;;4.32;81.21
57568;BME280;43403;51.948;5.922;2023-01-28T11:03:25;103086.53;;;4.38;81.98
57568;BME280;43403;51.948;5.922;2023-01-28T11:05:53;103082.13;;;4.40;81.27
57568;BME280;43403;51.948;5.922;2023-01-28T11:08:19;103078.38;;;4.49;83.50
57568;BME280;43403;51.948;5.922;2023-01-28T11:10:46;103076.47;;;4.54;81.62
57568;BME280;43403;51.948;5.922;2023-01-28T11:13:14;103080.56;;;4.61;83.32
57568;BME280;43403;51.948;5.922;2023-01-28T11:15:51;103071.81;;;4.64;83.10
57568;BME280;43403;51.948;5.922;2023-01-28T11:18:25;103064.75;;;4.67;82.10
57568;BME280;43403;51.948;5.922;2023-01-28T11:21:00;103073.34;;;4.69;81.74
57568;BME280;43403;51.948;5.922;2023-01-28T11:23:28;103066.16;;;4.76;83.11
57568;BME280;43403;51.948;5.922;2023-01-28T11:26:00;103063.38;;;4.82;81.07
57568;BME280;43403;51.948;5.922;2023-01-28T11:28:28;103052.59;;;4.93;83.91
57568;BME280;43403;51.948;5.922;2023-01-28T11:30:55;103037.72;;;4.97;81.66
57568;BME280;43403;51.948;5.922;2023-01-28T11:33:27;103032.56;;;4.95;78.53
57568;BME280;43403;51.948;5.922;2023-01-28T11:35:57;103015.84;;;5.02;81.32
57568;BME280;43403;51.948;5.922;2023-01-28T11:38:24;103000.75;;;5.12;79.49
57568;BME280;43403;51.948;5.922;2023-01-28T11:40:51;102996.38;;;5.12;79.46
57568;BME280;43403;51.948;5.922;2023-01-28T11:43:21;102980.53;;;5.19;80.24
57568;BME280;43403;51.948;5.922;2023-01-28T11:45:54;102995.91;;;5.25;79.31
57568;BME280;43403;51.948;5.922;2023-01-28T11:51:03;102992.31;;;5.51;78.79
57568;BME280;43403;51.948;5.922;2023-01-28T11:54:12;102987.03;;;5.52;76.89
57568;BME280;43403;51.948;5.922;2023-01-28T11:59:21;102990.78;;;5.67;77.46
57568;BME280;43403;51.948;5.922;2023-01-28T12:02:05;102986.66;;;5.62;74.64
57568;BME280;43403;51.948;5.922;2023-01-28T12:09:43;102998.88;;;5.82;75.54
57568;BME280;43403;51.948;5.922;2023-01-28T12:27:33;103009.19;;;6.07;72.72
57568;BME280;43403;51.948;5.922;2023-01-28T12:42:44;103001.91;;;6.15;73.31
57568;BME280;43403;51.948;5.922;2023-01-28T12:47:41;102999.44;;;6.12;68.99
57568;BME280;43403;51.948;5.922;2023-01-28T12:50:15;103011.06;;;6.03;70.82
57568;BME280;43403;51.948;5.922;2023-01-28T12:52:45;103015.91;;;6.12;72.71
57568;BME280;43403;51.948;5.922;2023-01-28T12:55:20;103014.34;;;6.29;73.22
57568;BME280;43403;51.948;5.922;2023-01-28T12:57:48;103010.84;;;6.30;71.78
57568;BME280;43403;51.948;5.922;2023-01-28T13:00:22;103016.47;;;6.41;72.19
57568;BME280;43403;51.948;5.922;2023-01-28T13:02:55;102996.50;;;6.40;70.59
57568;BME280;43403;51.948;5.922;2023-01-28T13:05:25;103000.88;;;6.40;71.67
57568;BME280;43403;51.948;5.922;2023-01-28T13:08:02;102995.38;;;6.46;71.33
57568;BME280;43403;51.948;5.922;2023-01-28T13:10:35;102995.00;;;6.55;72.47
57568;BME280;43403;51.948;5.922;2023-01-28T13:13:03;102989.78;;;6.55;71.41
57568;BME280;43403;51.948;5.922;2023-01-28T13:15:29;102987.13;;;6.57;71.73
57568;BME280;43403;51.948;5.922;2023-01-28T13:18:00;102983.38;;;6.62;70.16
57568;BME280;43403;51.948;5.922;2023-01-28T13:20:47;102979.69;;;6.47;70.88
57568;BME280;43403;51.948;5.922;2023-01-28T13:23:21;102980.50;;;6.68;71.01
57568;BME280;43403;51.948;5.922;2023-01-28T13:25:48;102974.25;;;6.72;69.42
57568;BME280;43403;51.948;5.922;2023-01-28T13:28:25;102956.25;;;6.85;72.79
57568;BME280;43403;51.948;5.922;2023-01-28T13:30:59;102953.53;;;6.88;70.36
57568;BME280;43403;51.948;5.922;2023-01-28T13:33:30;102935.25;;;6.88;69.87
57568;BME280;43403;51.948;5.922;2023-01-28T13:35:56;102923.84;;;6.91;68.59
57568;BME280;43403;51.948;5.922;2023-01-28T13:38:26;102918.13;;;6.83;68.87
57568;BME280;43403;51.948;5.922;2023-01-28T13:40:54;102914.59;;;6.84;70.98
57568;BME280;43403;51.948;5.922;2023-01-28T13:46:04;102899.28;;;6.76;70.02
57568;BME280;43403;51.948;5.922;2023-01-28T13:48:38;102898.59;;;6.72;70.47
57568;BME280;43403;51.948;5.922;2023-01-28T13:51:11;102909.25;;;6.87;71.88
57568;BME280;43403;51.948;5.922;2023-01-28T13:53:47;102917.63;;;6.75;69.33
57568;BME280;43403;51.948;5.922;2023-01-28T13:56:20;102922.75;;;6.76;67.60
57568;BME280;43403;51.948;5.922;2023-01-28T14:09:22;102948.28;;;6.69;67.92
57568;BME280;43403;51.948;5.922;2023-01-28T14:12:00;102950.63;;;6.57;67.77
57568;BME280;43403;51.948;5.922;2023-01-28T14:19:44;102960.59;;;6.26;71.43
57568;BME280;43403;51.948;5.922;2023-01-28T14:22:14;102963.94;;;6.30;70.23
57568;BME280;43403;51.948;5.922;2023-01-28T14:24:42;102967.97;;;5.96;68.60
57568;BME280;43403;51.948;5.922;2023-01-28T14:27:14;102965.38;;;5.94;70.46
57568;BME280;43403;51.948;5.922;2023-01-28T14:29:49;102971.34;;;5.98;71.62
57568;BME280;43403;51.948;5.922;2023-01-28T14:32:18;102977.78;;;5.88;69.81
57568;BME280;43403;51.948;5.922;2023-01-28T14:34:46;102969.41;;;5.81;71.17
57568;BME280;43403;51.948;5.922;2023-01-28T14:37:17;102971.88;;;5.84;73.60